TAF Text Data
IDs:
Format:
Raw Decoded Include METAR

Data at: 2145 UTC 19 Jan 2019

Region: TOP
KATL 192140Z 1922/2024 19012G20KT 3SM RA SCT020 BKN045
  TEMPO 1923/2002 VRB15G30KT 1SM +TSRA BKN015CB OVC030
  FM200500 28015G25KT P6SM BKN018 OVC040
  FM201200 30022G30KT P6SM BKN030 BKN060
  FM201700 32020G30KT P6SM SCT040


KBOS 192108Z 1921/2024 07008KT 2SM -SN OVC020
  FM192300 07012KT 6SM -SN OVC015
  FM200100 09013G24KT 1SM -SN OVC008
  FM201000 09015G22KT 2SM +RA BR OVC003 WS020/17040KT
  FM202000 33014G21KT 6SM -FZRA OVC010


KBWI 192103Z 1921/2024 08010KT 5SM -RA BR OVC010
  FM200000 10010G18KT 2SM -RA OVC003
  FM200300 20006KT 1SM -RA OVC003
  FM201100 24007KT 1SM -RA OVC003
  FM201400 29013G24KT P6SM OVC010
  FM201800 32020G34KT P6SM BKN035


KCLE 191720Z 1918/2024 06015G24KT 1SM -SN OVC015
  TEMPO 1918/1922 1/2SM SN BLSN OVC008
  FM200000 02023G38KT 3/4SM -SN BLSN OVC005
  TEMPO 2000/2004 1/4SM +SN
  FM201000 36022G34KT 1SM -SN BLSN OVC009
  FM201200 34022G29KT 2SM BR VCSH OVC015
  PROB30 2012/2018 1SM -SN OVC025


KCLT 192010Z 1920/2024 15010KT 2SM -RA BR OVC005
  TEMPO 1921/1923 1SM -SHRA
  FM192300 15009G17KT 4SM -RA BR OVC008
  FM200000 15010KT 5SM BR VCSH SCT010 OVC025
  FM200300 18012G24KT 2SM -SHRA SCT008 OVC015
  FM200800 23010KT 4SM BR BKN018
  FM201300 29011G19KT P6SM FEW050 SCT250


KCVG 192059Z 1921/2024 03014G20KT 3SM -RA BR OVC004
  FM200000 02019G31KT 3SM -FZRASN OVC004
  FM200300 01021G36KT 1/2SM SN FG OVC003 WS020/04045KT
  FM200500 36020G37KT 2SM -SN BR OVC006
  FM200800 35019G35KT 5SM BLSN OVC009
  FM201200 35015G31KT P6SM OVC025
  FM201800 34010G20KT P6SM SCT025 BKN200


KDCA 192103Z 1921/2024 09008KT 5SM -RA BR OVC015
  FM192300 11010G17KT 3SM -RA OVC008
  FM200100 11010G17KT 1 1/2SM -RA OVC003
  FM200300 15008KT 1SM -RA OVC003 WS020/20035KT
  FM201200 30014G25KT P6SM OVC020
  FM201800 32019G33KT P6SM BKN035


KDEN 192112Z 1921/2024 27011KT P6SM FEW090 FEW130 SCT220
  FM200200 21009KT P6SM FEW120 SCT220
  FM201900 12008KT P6SM BKN200


KDFW 192058Z 1921/2024 33025G35KT P6SM SCT030
  TEMPO 1921/1923 BKN030
  FM200000 34015G25KT P6SM SKC
  FM200600 35012KT P6SM FEW250
  FM202000 18005KT P6SM FEW250


KDTW 192112Z 1921/2024 03015G25KT 1SM -SN BR SCT009 OVC015
  FM192300 03015G24KT 4SM -SN BR BKN015 OVC025
  FM200100 02016G26KT P6SM OVC015
  FM200900 35015G25KT P6SM OVC025
  FM201800 34012G22KT P6SM SCT030


KEWR 192031Z 1921/2024 10006KT P6SM BKN030 BKN120
  FM192300 08009KT 6SM -SN BR SCT020 OVC025
  FM200000 06011KT 1SM -SN BR OVC008
  FM200300 06012KT 2SM RASNPL BR OVC009
  FM200500 07014KT 1 1/2SM +RA BR OVC006
  FM201300 18012KT 2SM RA BR OVC005
  FM201700 30015G27KT P6SM SCT005 BKN020
  FM202000 30024G32KT P6SM BKN035


KFLL 192100Z 1921/2024 16012KT P6SM FEW040 SCT120
  FM200600 19007KT P6SM SCT035 BKN200
  FM201100 21010KT P6SM VCSH SCT035 OVC080
  FM201500 26013KT P6SM VCSH SCT025 BKN050
  FM201900 29015G25KT P6SM SCT040


KIAD 192102Z 1921/2024 10010KT 3SM -RA BR OVC010
  FM200000 11009KT 1 1/2SM -RA OVC003
  FM200300 12006KT 1SM -RA OVC003 WS020/17030KT
  FM200900 21007KT 1 1/2SM -RA OVC003 WS020/20035KT
  FM201200 30012G20KT P6SM OVC020
  FM201800 32021G36KT P6SM BKN045


KIAH 191734Z 1918/2024 31015G31KT P6SM OVC028
  TEMPO 1919/1920 SCT035
  FM192000 32019G29KT P6SM SCT035
  FM192200 33015G25KT P6SM SKC
  FM200600 34010KT P6SM SKC
  FM201500 36005KT P6SM SKC


KJFK 192108Z 1921/2024 09008KT P6SM BKN025 OVC050
  FM200000 11012KT 6SM -SN SCT020 OVC025
  FM200100 10014G22KT 1SM -SN BR OVC009
  FM200200 08015G22KT 2SM RA BR OVC009
  TEMPO 2002/2003 -RASN
  FM200600 11014KT 1 1/2SM +RA BR OVC007
  FM201400 18012KT 1 1/2SM RA BR OVC005
  FM201700 30015G25KT P6SM SCT009 BKN020
  FM202200 32022G32KT P6SM BKN035


KLAS 192045Z 1921/2024 VRB04KT P6SM BKN250
  FM200300 23005KT P6SM BKN250
  FM201200 VRB05KT P6SM BKN250
  FM201800 04006KT P6SM BKN250


KLAX 192142Z 1922/2024 27008KT P6SM SCT200
  FM200400 VRB03KT P6SM SCT200
  FM200800 06005KT P6SM SCT200
  FM202000 27008KT P6SM BKN200


KLGA 192047Z 1921/2024 11008KT P6SM BKN030 BKN120
  FM200000 10012KT 6SM -SN SCT020 OVC025
  FM200100 10012KT 1SM -SN BR OVC009
  TEMPO 2002/2004 -RASN
  FM200400 08014KT 2SM RA BR OVC009
  FM200600 08014KT 1 1/2SM +RA BR OVC007
  FM201400 18015KT 1 1/2SM RA OVC006
  FM201700 30015G25KT P6SM SCT006 BKN020
  FM202200 32022G32KT P6SM BKN035


KMCO 192107Z 1921/2024 18014KT P6SM FEW040 BKN250
  FM200300 18010KT P6SM SCT030 OVC060
  FM200600 21012KT P6SM -RA VCTS SCT025CB OVC040 WS020/22035KT
  FM201200 27017G24KT P6SM BKN025 BKN100
  FM201800 27022G29KT P6SM SCT030 BKN200
  FM202300 30011KT P6SM SKC


KMDW 192100Z 1921/2024 03019G31KT 6SM -SHSN BLSN OVC013
  FM200200 02017G27KT 4SM -SHSN BLSN OVC020
  FM200600 36014G21KT 1SM -SHSN OVC020
  TEMPO 2007/2011 1/2SM SHSN OVC009
  FM201100 34014G20KT P6SM VCSH SCT020 BKN035
  FM201500 34013KT P6SM SCT030
  FM202300 33007KT P6SM FEW030


KMEM 192130Z 1922/2024 32022G30KT P6SM VCSH OVC013
  FM192300 33022G30KT 6SM -RASN OVC008
  FM200000 33022G30KT 3SM -SN OVC012
  FM200400 35016G23KT P6SM OVC015
  FM201500 01012KT P6SM SCT030


KMIA 192100Z 1921/2024 15012KT P6SM SCT040 BKN150
  FM200700 17005KT P6SM SCT035 SCT200
  FM201100 21008KT P6SM VCSH SCT035 BKN150
  FM201500 26012KT P6SM VCSH SCT035 OVC050
  FM201900 28014KT P6SM SCT040


KMSP 192056Z 1921/2024 35010KT P6SM SKC
  FM192200 33008KT P6SM FEW100
  FM200800 04007KT P6SM BKN100
  FM201800 09006KT P6SM FEW100


KORD 192100Z 1921/2024 02019G31KT 6SM -SHSN BLSN OVC015
  FM200100 01017G27KT 4SM -SHSN BLSN OVC020
  FM200400 01014G21KT 1SM -SHSN OVC020
  TEMPO 2004/2008 1/2SM SHSN OVC009
  FM200800 34014G21KT P6SM VCSH BKN025
  FM201400 34013KT P6SM SCT030
  FM202300 33007KT P6SM FEW030


KPDX 192051Z 1921/2018 VRB04KT P6SM SCT045 OVC150
  FM200600 08005KT 5SM -RA BR SCT015 OVC090
  FM201300 VRB03KT 3SM -RA BR BKN015 OVC070


KPHL 192107Z 1921/2024 08008KT P6SM SCT025 OVC040
  FM200000 09008KT 5SM -RA OVC025
  TEMPO 2000/2002 3SM -SNRA OVC015
  FM200200 10010KT 3SM -RA OVC012
  FM200500 12010KT 2SM RA OVC005 WS020/17045KT
  FM201000 20010KT 2SM RA OVC005 WS020/18045KT
  FM201600 30017G27KT P6SM OVC010
  FM202000 32020G32KT P6SM BKN050


KPHX 192031Z 1921/2024 35003KT P6SM SCT250
  FM192300 29004KT P6SM SCT250
  FM200500 08004KT P6SM BKN250
  FM202300 27003KT P6SM BKN250


KPIT 192108Z 1921/2024 06010KT 4SM -RA BR OVC015
  FM200800 34013G25KT 2SM -SN OVC008
  FM201200 32014G25KT 4SM -SN OVC012
  FM201500 33013KT P6SM OVC020


KSAN 192054Z 1921/2024 30008KT P6SM SCT250
  FM200100 VRB04KT P6SM SCT250
  FM202000 30008KT P6SM SCT250


KSEA 192105Z 1921/2024 19010KT P6SM SCT030 SCT060 OVC150
  TEMPO 1921/1922 21015G24KT -SHRA
  FM192200 21008KT P6SM SCT060 BKN200
  FM200400 VRB04KT P6SM SCT040 BKN100
  FM201300 03005KT P6SM SCT025 BKN040
  FM201800 35005KT P6SM BKN020


KSFO 192053Z 1921/2024 01005KT P6SM FEW035 BKN200
  FM200000 07005KT P6SM FEW040 BKN200
  FM200200 28005KT P6SM SCT040 BKN050 BKN100
  FM200800 21005KT P6SM FEW015 OVC040
  FM201100 22007KT P6SM VCSH SCT015 OVC025
  FM202100 27015KT 6SM -SHRA BR SCT015 OVC020


KSLC 192031Z 1921/2024 15008KT P6SM OVC040
  FM192300 16007KT P6SM BKN070
  FM200600 15006KT P6SM SCT070
  FM201900 17010KT P6SM SCT150


KSTL 192121Z 1921/2024 35016G30KT P6SM -SN OVC012
  FM192300 35020G32KT P6SM OVC015
  FM200600 34014G22KT P6SM BKN020
  FM200800 33012G19KT P6SM SCT035
  FM201000 33011KT P6SM SCT250
  FM201800 VRB04KT P6SM BKN060


KTPA 192104Z 1921/2024 19012KT P6SM FEW035 BKN250
  FM200200 19012G22KT P6SM VCSH SCT030 SCT120 BKN200
  FM200700 21015G27KT 6SM SHRA VCTS BKN020CB OVC050
  FM201100 28014G25KT 6SM SHRA VCTS BKN025CB OVC035
  FM202100 31016G26KT P6SM SCT025 BKN050